sensor_id;sensor_type;location;lat;lon;timestamp;P1;durP1;ratioP1;P2;durP2;ratioP2
64710;SDS011;51139;45.626;6.850;2024-02-16T00:00:22;1.38;;;0.70;;
64710;SDS011;51139;45.626;6.850;2024-02-16T00:02:48;0.80;;;0.50;;
64710;SDS011;51139;45.626;6.850;2024-02-16T00:05:13;2.00;;;0.70;;
64710;SDS011;51139;45.626;6.850;2024-02-16T00:07:39;0.82;;;0.50;;
64710;SDS011;51139;45.626;6.850;2024-02-16T00:10:06;1.38;;;0.65;;
64710;SDS011;51139;45.626;6.850;2024-02-16T00:12:32;0.93;;;0.65;;
64710;SDS011;51139;45.626;6.850;2024-02-16T00:14:58;1.23;;;0.63;;
64710;SDS011;51139;45.626;6.850;2024-02-16T00:17:24;1.92;;;0.95;;
64710;SDS011;51139;45.626;6.850;2024-02-16T00:19:53;1.60;;;0.70;;
64710;SDS011;51139;45.626;6.850;2024-02-16T00:22:19;0.90;;;0.50;;
64710;SDS011;51139;45.626;6.850;2024-02-16T00:24:45;1.48;;;0.73;;
64710;SDS011;51139;45.626;6.850;2024-02-16T00:27:11;3.10;;;1.20;;
64710;SDS011;51139;45.626;6.850;2024-02-16T00:29:36;3.03;;;0.50;;
64710;SDS011;51139;45.626;6.850;2024-02-16T00:32:03;1.30;;;0.70;;
64710;SDS011;51139;45.626;6.850;2024-02-16T00:34:31;1.15;;;0.63;;
64710;SDS011;51139;45.626;6.850;2024-02-16T00:36:56;2.72;;;0.70;;
64710;SDS011;51139;45.626;6.850;2024-02-16T00:39:22;0.60;;;0.43;;
64710;SDS011;51139;45.626;6.850;2024-02-16T00:41:47;1.08;;;0.55;;
64710;SDS011;51139;45.626;6.850;2024-02-16T00:44:12;1.00;;;0.65;;
64710;SDS011;51139;45.626;6.850;2024-02-16T00:46:38;2.05;;;0.50;;
64710;SDS011;51139;45.626;6.850;2024-02-16T00:49:03;0.50;;;0.40;;
64710;SDS011;51139;45.626;6.850;2024-02-16T00:51:29;1.95;;;0.50;;
64710;SDS011;51139;45.626;6.850;2024-02-16T00:53:54;0.93;;;0.50;;
64710;SDS011;51139;45.626;6.850;2024-02-16T00:56:20;0.55;;;0.50;;
64710;SDS011;51139;45.626;6.850;2024-02-16T00:58:45;1.67;;;0.70;;
64710;SDS011;51139;45.626;6.850;2024-02-16T01:01:10;1.30;;;0.57;;
64710;SDS011;51139;45.626;6.850;2024-02-16T01:03:37;1.17;;;0.60;;
64710;SDS011;51139;45.626;6.850;2024-02-16T01:06:04;0.73;;;0.45;;
64710;SDS011;51139;45.626;6.850;2024-02-16T01:08:30;0.77;;;0.50;;
64710;SDS011;51139;45.626;6.850;2024-02-16T01:10:56;0.57;;;0.50;;
64710;SDS011;51139;45.626;6.850;2024-02-16T01:13:21;1.55;;;0.60;;
64710;SDS011;51139;45.626;6.850;2024-02-16T01:15:47;1.13;;;0.57;;
64710;SDS011;51139;45.626;6.850;2024-02-16T01:18:12;1.42;;;0.50;;
64710;SDS011;51139;45.626;6.850;2024-02-16T01:20:38;2.38;;;0.52;;
64710;SDS011;51139;45.626;6.850;2024-02-16T01:23:03;1.10;;;0.40;;
64710;SDS011;51139;45.626;6.850;2024-02-16T01:25:30;2.67;;;0.57;;
64710;SDS011;51139;45.626;6.850;2024-02-16T01:27:56;3.13;;;0.50;;
64710;SDS011;51139;45.626;6.850;2024-02-16T01:30:21;0.40;;;0.30;;
64710;SDS011;51139;45.626;6.850;2024-02-16T01:32:47;0.70;;;0.50;;
64710;SDS011;51139;45.626;6.850;2024-02-16T01:35:12;1.02;;;0.40;;
64710;SDS011;51139;45.626;6.850;2024-02-16T01:37:39;1.35;;;0.40;;
64710;SDS011;51139;45.626;6.850;2024-02-16T01:40:06;1.35;;;0.40;;
64710;SDS011;51139;45.626;6.850;2024-02-16T01:42:33;6.07;;;0.82;;
64710;SDS011;51139;45.626;6.850;2024-02-16T01:44:59;0.85;;;0.40;;
64710;SDS011;51139;45.626;6.850;2024-02-16T01:47:25;0.38;;;0.32;;
64710;SDS011;51139;45.626;6.850;2024-02-16T01:49:51;0.52;;;0.47;;
64710;SDS011;51139;45.626;6.850;2024-02-16T01:52:16;2.15;;;0.63;;
64710;SDS011;51139;45.626;6.850;2024-02-16T01:54:42;1.42;;;0.40;;
64710;SDS011;51139;45.626;6.850;2024-02-16T01:57:07;1.42;;;0.50;;
64710;SDS011;51139;45.626;6.850;2024-02-16T01:59:33;1.33;;;0.40;;
64710;SDS011;51139;45.626;6.850;2024-02-16T02:01:59;1.05;;;0.60;;
64710;SDS011;51139;45.626;6.850;2024-02-16T02:04:25;2.20;;;0.60;;
64710;SDS011;51139;45.626;6.850;2024-02-16T02:06:51;2.83;;;0.60;;
64710;SDS011;51139;45.626;6.850;2024-02-16T02:09:17;0.80;;;0.43;;
64710;SDS011;51139;45.626;6.850;2024-02-16T02:11:42;2.08;;;0.60;;
64710;SDS011;51139;45.626;6.850;2024-02-16T02:14:09;1.27;;;1.00;;
64710;SDS011;51139;45.626;6.850;2024-02-16T02:16:35;2.42;;;0.70;;
64710;SDS011;51139;45.626;6.850;2024-02-16T02:19:02;1.30;;;0.60;;
64710;SDS011;51139;45.626;6.850;2024-02-16T02:21:27;2.03;;;0.52;;
64710;SDS011;51139;45.626;6.850;2024-02-16T02:23:53;4.18;;;0.80;;
64710;SDS011;51139;45.626;6.850;2024-02-16T02:26:18;1.30;;;0.55;;
64710;SDS011;51139;45.626;6.850;2024-02-16T02:28:43;0.90;;;0.52;;
64710;SDS011;51139;45.626;6.850;2024-02-16T07:41:17;4.72;;;1.30;;
64710;SDS011;51139;45.626;6.850;2024-02-16T07:43:43;7.63;;;1.92;;
64710;SDS011;51139;45.626;6.850;2024-02-16T07:46:08;8.20;;;1.55;;
64710;SDS011;51139;45.626;6.850;2024-02-16T07:48:34;6.88;;;1.20;;
64710;SDS011;51139;45.626;6.850;2024-02-16T07:51:00;11.00;;;1.33;;
64710;SDS011;51139;45.626;6.850;2024-02-16T07:53:27;15.80;;;1.50;;
64710;SDS011;51139;45.626;6.850;2024-02-16T07:55:53;7.65;;;1.60;;
64710;SDS011;51139;45.626;6.850;2024-02-16T07:58:19;5.15;;;1.17;;
64710;SDS011;51139;45.626;6.850;2024-02-16T08:00:44;7.15;;;1.20;;
64710;SDS011;51139;45.626;6.850;2024-02-16T08:03:09;14.63;;;1.42;;
64710;SDS011;51139;45.626;6.850;2024-02-16T08:05:35;5.97;;;0.95;;
64710;SDS011;51139;45.626;6.850;2024-02-16T08:08:00;7.90;;;1.15;;
64710;SDS011;51139;45.626;6.850;2024-02-16T08:10:26;10.52;;;2.47;;
64710;SDS011;51139;45.626;6.850;2024-02-16T08:12:51;11.43;;;3.30;;
64710;SDS011;51139;45.626;6.850;2024-02-16T08:15:17;27.83;;;13.43;;
64710;SDS011;51139;45.626;6.850;2024-02-16T08:17:48;15.75;;;7.80;;
64710;SDS011;51139;45.626;6.850;2024-02-16T08:20:16;15.50;;;3.70;;
64710;SDS011;51139;45.626;6.850;2024-02-16T08:22:41;9.02;;;3.55;;
64710;SDS011;51139;45.626;6.850;2024-02-16T08:25:07;12.20;;;4.15;;
64710;SDS011;51139;45.626;6.850;2024-02-16T08:27:33;5.45;;;1.20;;
64710;SDS011;51139;45.626;6.850;2024-02-16T08:29:58;13.32;;;2.13;;
64710;SDS011;51139;45.626;6.850;2024-02-16T08:32:24;13.80;;;1.88;;
64710;SDS011;51139;45.626;6.850;2024-02-16T08:34:49;10.88;;;1.67;;
64710;SDS011;51139;45.626;6.850;2024-02-16T08:37:15;7.60;;;1.30;;
64710;SDS011;51139;45.626;6.850;2024-02-16T08:39:41;3.97;;;0.90;;
64710;SDS011;51139;45.626;6.850;2024-02-16T08:42:07;1.83;;;0.63;;
64710;SDS011;51139;45.626;6.850;2024-02-16T08:44:36;7.55;;;1.75;;
64710;SDS011;51139;45.626;6.850;2024-02-16T08:47:02;12.90;;;2.60;;
64710;SDS011;51139;45.626;6.850;2024-02-16T08:49:28;3.40;;;0.60;;
64710;SDS011;51139;45.626;6.850;2024-02-16T08:51:53;2.03;;;0.60;;
64710;SDS011;51139;45.626;6.850;2024-02-16T08:54:18;2.75;;;1.08;;
64710;SDS011;51139;45.626;6.850;2024-02-16T08:56:47;3.13;;;1.80;;
64710;SDS011;51139;45.626;6.850;2024-02-16T08:59:13;5.53;;;2.60;;
64710;SDS011;51139;45.626;6.850;2024-02-16T09:01:39;5.55;;;1.80;;
64710;SDS011;51139;45.626;6.850;2024-02-16T09:04:04;2.13;;;0.93;;
64710;SDS011;51139;45.626;6.850;2024-02-16T09:06:30;2.22;;;0.90;;
64710;SDS011;51139;45.626;6.850;2024-02-16T09:08:55;2.40;;;0.70;;
64710;SDS011;51139;45.626;6.850;2024-02-16T09:11:21;4.20;;;0.80;;
64710;SDS011;51139;45.626;6.850;2024-02-16T09:13:47;2.25;;;0.88;;
64710;SDS011;51139;45.626;6.850;2024-02-16T09:16:13;1.70;;;0.57;;
64710;SDS011;51139;45.626;6.850;2024-02-16T09:18:38;2.47;;;0.93;;
64710;SDS011;51139;45.626;6.850;2024-02-16T09:21:04;0.93;;;0.55;;
64710;SDS011;51139;45.626;6.850;2024-02-16T09:23:31;2.25;;;0.50;;
64710;SDS011;51139;45.626;6.850;2024-02-16T09:25:57;1.33;;;0.60;;
64710;SDS011;51139;45.626;6.850;2024-02-16T09:28:24;0.63;;;0.40;;
64710;SDS011;51139;45.626;6.850;2024-02-16T09:30:49;0.40;;;0.40;;
64710;SDS011;51139;45.626;6.850;2024-02-16T09:33:15;1.50;;;0.50;;
64710;SDS011;51139;45.626;6.850;2024-02-16T09:35:40;1.75;;;0.50;;
64710;SDS011;51139;45.626;6.850;2024-02-16T09:38:06;0.63;;;0.40;;
64710;SDS011;51139;45.626;6.850;2024-02-16T09:40:31;1.58;;;0.50;;
64710;SDS011;51139;45.626;6.850;2024-02-16T09:42:57;2.53;;;0.55;;
64710;SDS011;51139;45.626;6.850;2024-02-16T09:45:23;0.80;;;0.43;;
64710;SDS011;51139;45.626;6.850;2024-02-16T09:47:49;1.40;;;0.60;;
64710;SDS011;51139;45.626;6.850;2024-02-16T09:50:15;1.05;;;0.43;;
64710;SDS011;51139;45.626;6.850;2024-02-16T09:52:41;1.05;;;0.65;;
64710;SDS011;51139;45.626;6.850;2024-02-16T09:55:13;1.00;;;0.60;;
64710;SDS011;51139;45.626;6.850;2024-02-16T09:57:38;2.22;;;0.70;;
64710;SDS011;51139;45.626;6.850;2024-02-16T10:00:04;1.65;;;0.60;;
64710;SDS011;51139;45.626;6.850;2024-02-16T10:02:40;1.73;;;0.50;;
64710;SDS011;51139;45.626;6.850;2024-02-16T10:05:19;0.70;;;0.45;;
64710;SDS011;51139;45.626;6.850;2024-02-16T10:07:46;0.93;;;0.60;;
64710;SDS011;51139;45.626;6.850;2024-02-16T10:13:01;2.15;;;0.47;;
64710;SDS011;51139;45.626;6.850;2024-02-16T10:15:27;1.23;;;0.55;;
64710;SDS011;51139;45.626;6.850;2024-02-16T10:18:02;0.80;;;0.40;;
64710;SDS011;51139;45.626;6.850;2024-02-16T10:20:29;5.10;;;1.67;;
64710;SDS011;51139;45.626;6.850;2024-02-16T10:23:28;12.77;;;1.45;;
64710;SDS011;51139;45.626;6.850;2024-02-16T10:25:47;5.72;;;0.90;;
64710;SDS011;51139;45.626;6.850;2024-02-16T10:28:12;7.03;;;0.90;;
64710;SDS011;51139;45.626;6.850;2024-02-16T10:30:39;3.00;;;0.60;;
64710;SDS011;51139;45.626;6.850;2024-02-16T10:33:09;4.90;;;1.40;;
64710;SDS011;51139;45.626;6.850;2024-02-16T10:35:37;1.23;;;0.80;;
64710;SDS011;51139;45.626;6.850;2024-02-16T10:38:04;1.95;;;1.10;;
64710;SDS011;51139;45.626;6.850;2024-02-16T10:40:37;1.70;;;0.85;;
64710;SDS011;51139;45.626;6.850;2024-02-16T10:43:04;1.98;;;0.95;;
64710;SDS011;51139;45.626;6.850;2024-02-16T10:45:34;4.97;;;1.10;;
64710;SDS011;51139;45.626;6.850;2024-02-16T10:48:04;4.32;;;1.10;;
64710;SDS011;51139;45.626;6.850;2024-02-16T10:50:34;1.30;;;0.70;;
64710;SDS011;51139;45.626;6.850;2024-02-16T10:55:56;1.45;;;0.60;;
64710;SDS011;51139;45.626;6.850;2024-02-16T10:58:23;1.05;;;0.63;;
64710;SDS011;51139;45.626;6.850;2024-02-16T11:00:52;1.73;;;0.63;;
64710;SDS011;51139;45.626;6.850;2024-02-16T11:03:21;1.20;;;0.50;;
64710;SDS011;51139;45.626;6.850;2024-02-16T11:05:51;1.80;;;0.80;;
64710;SDS011;51139;45.626;6.850;2024-02-16T11:08:18;2.72;;;0.57;;
64710;SDS011;51139;45.626;6.850;2024-02-16T11:11:00;0.82;;;0.50;;
64710;SDS011;51139;45.626;6.850;2024-02-16T11:13:31;1.50;;;0.60;;
64710;SDS011;51139;45.626;6.850;2024-02-16T11:18:29;0.90;;;0.43;;
64710;SDS011;51139;45.626;6.850;2024-02-16T11:20:55;3.58;;;0.65;;
64710;SDS011;51139;45.626;6.850;2024-02-16T11:23:26;1.55;;;0.65;;
64710;SDS011;51139;45.626;6.850;2024-02-16T11:26:05;1.70;;;0.85;;
64710;SDS011;51139;45.626;6.850;2024-02-16T11:28:36;1.73;;;0.60;;
64710;SDS011;51139;45.626;6.850;2024-02-16T11:31:02;1.27;;;0.63;;
64710;SDS011;51139;45.626;6.850;2024-02-16T11:33:28;0.80;;;0.50;;
64710;SDS011;51139;45.626;6.850;2024-02-16T11:35:55;1.25;;;0.60;;
64710;SDS011;51139;45.626;6.850;2024-02-16T11:38:25;0.75;;;0.50;;
64710;SDS011;51139;45.626;6.850;2024-02-16T11:43:21;3.13;;;0.80;;
64710;SDS011;51139;45.626;6.850;2024-02-16T11:45:48;0.77;;;0.60;;
64710;SDS011;51139;45.626;6.850;2024-02-16T11:48:18;2.08;;;0.70;;
64710;SDS011;51139;45.626;6.850;2024-02-16T11:50:48;2.55;;;1.00;;
64710;SDS011;51139;45.626;6.850;2024-02-16T11:53:17;2.53;;;1.35;;
64710;SDS011;51139;45.626;6.850;2024-02-16T11:55:47;6.47;;;1.40;;
64710;SDS011;51139;45.626;6.850;2024-02-16T11:58:17;2.80;;;1.15;;
64710;SDS011;51139;45.626;6.850;2024-02-16T12:00:46;1.67;;;1.00;;
64710;SDS011;51139;45.626;6.850;2024-02-16T12:03:21;1.33;;;0.90;;
64710;SDS011;51139;45.626;6.850;2024-02-16T12:05:54;3.17;;;1.00;;
64710;SDS011;51139;45.626;6.850;2024-02-16T12:08:31;3.00;;;1.08;;
64710;SDS011;51139;45.626;6.850;2024-02-16T12:10:57;3.05;;;1.27;;
64710;SDS011;51139;45.626;6.850;2024-02-16T12:13:23;2.25;;;1.20;;
64710;SDS011;51139;45.626;6.850;2024-02-16T12:15:49;1.88;;;0.80;;
64710;SDS011;51139;45.626;6.850;2024-02-16T12:18:24;2.67;;;1.10;;
64710;SDS011;51139;45.626;6.850;2024-02-16T12:23:26;2.10;;;1.10;;
64710;SDS011;51139;45.626;6.850;2024-02-16T12:25:52;2.92;;;1.35;;
64710;SDS011;51139;45.626;6.850;2024-02-16T12:28:18;3.22;;;1.30;;
64710;SDS011;51139;45.626;6.850;2024-02-16T12:30:45;1.73;;;1.02;;
64710;SDS011;51139;45.626;6.850;2024-02-16T12:33:13;2.47;;;1.48;;
64710;SDS011;51139;45.626;6.850;2024-02-16T12:35:39;2.38;;;1.00;;
64710;SDS011;51139;45.626;6.850;2024-02-16T12:38:05;1.95;;;1.00;;
64710;SDS011;51139;45.626;6.850;2024-02-16T12:40:33;3.78;;;1.20;;
64710;SDS011;51139;45.626;6.850;2024-02-16T12:42:58;2.53;;;1.30;;
64710;SDS011;51139;45.626;6.850;2024-02-16T12:45:24;2.05;;;1.08;;
64710;SDS011;51139;45.626;6.850;2024-02-16T12:47:49;2.80;;;1.20;;
64710;SDS011;51139;45.626;6.850;2024-02-16T12:50:15;1.42;;;0.80;;
64710;SDS011;51139;45.626;6.850;2024-02-16T12:52:42;2.40;;;1.10;;
64710;SDS011;51139;45.626;6.850;2024-02-16T12:55:08;2.65;;;1.15;;
64710;SDS011;51139;45.626;6.850;2024-02-16T12:57:36;2.03;;;1.10;;
64710;SDS011;51139;45.626;6.850;2024-02-16T13:00:03;1.60;;;0.90;;
64710;SDS011;51139;45.626;6.850;2024-02-16T13:02:29;1.92;;;0.90;;
64710;SDS011;51139;45.626;6.850;2024-02-16T13:04:55;3.50;;;1.05;;
64710;SDS011;51139;45.626;6.850;2024-02-16T13:07:20;3.42;;;1.30;;
64710;SDS011;51139;45.626;6.850;2024-02-16T13:09:46;1.60;;;0.82;;
64710;SDS011;51139;45.626;6.850;2024-02-16T13:12:11;2.00;;;0.93;;
64710;SDS011;51139;45.626;6.850;2024-02-16T13:14:36;2.15;;;1.02;;
64710;SDS011;51139;45.626;6.850;2024-02-16T13:17:02;2.00;;;1.10;;
64710;SDS011;51139;45.626;6.850;2024-02-16T13:19:28;3.13;;;0.88;;
64710;SDS011;51139;45.626;6.850;2024-02-16T13:21:54;1.25;;;0.70;;
64710;SDS011;51139;45.626;6.850;2024-02-16T13:24:19;1.17;;;0.60;;
64710;SDS011;51139;45.626;6.850;2024-02-16T13:26:45;1.75;;;0.80;;
64710;SDS011;51139;45.626;6.850;2024-02-16T13:29:10;2.78;;;0.90;;
64710;SDS011;51139;45.626;6.850;2024-02-16T13:31:36;1.65;;;0.60;;
64710;SDS011;51139;45.626;6.850;2024-02-16T13:34:01;1.88;;;0.70;;
64710;SDS011;51139;45.626;6.850;2024-02-16T13:36:27;0.95;;;0.60;;
64710;SDS011;51139;45.626;6.850;2024-02-16T13:38:52;1.08;;;0.63;;
64710;SDS011;51139;45.626;6.850;2024-02-16T13:41:17;2.60;;;0.93;;
64710;SDS011;51139;45.626;6.850;2024-02-16T13:43:43;2.35;;;0.88;;
64710;SDS011;51139;45.626;6.850;2024-02-16T13:46:09;1.95;;;0.88;;
64710;SDS011;51139;45.626;6.850;2024-02-16T13:48:34;1.45;;;0.90;;
64710;SDS011;51139;45.626;6.850;2024-02-16T13:51:02;2.30;;;1.00;;
64710;SDS011;51139;45.626;6.850;2024-02-16T13:53:28;2.67;;;1.08;;
64710;SDS011;51139;45.626;6.850;2024-02-16T13:55:55;2.63;;;0.80;;
64710;SDS011;51139;45.626;6.850;2024-02-16T13:58:20;2.05;;;0.70;;
64710;SDS011;51139;45.626;6.850;2024-02-16T14:00:46;2.58;;;1.10;;
64710;SDS011;51139;45.626;6.850;2024-02-16T14:03:12;3.72;;;0.80;;
64710;SDS011;51139;45.626;6.850;2024-02-16T14:05:39;2.20;;;1.02;;
64710;SDS011;51139;45.626;6.850;2024-02-16T14:08:05;1.25;;;0.57;;
64710;SDS011;51139;45.626;6.850;2024-02-16T14:10:32;2.15;;;1.20;;
64710;SDS011;51139;45.626;6.850;2024-02-16T14:12:57;1.92;;;1.00;;
64710;SDS011;51139;45.626;6.850;2024-02-16T14:15:23;1.90;;;0.90;;
64710;SDS011;51139;45.626;6.850;2024-02-16T14:17:49;1.33;;;0.80;;
64710;SDS011;51139;45.626;6.850;2024-02-16T14:20:14;1.48;;;0.73;;
64710;SDS011;51139;45.626;6.850;2024-02-16T14:22:39;2.13;;;0.90;;
64710;SDS011;51139;45.626;6.850;2024-02-16T14:25:05;1.80;;;0.85;;
64710;SDS011;51139;45.626;6.850;2024-02-16T14:27:30;1.33;;;0.70;;
64710;SDS011;51139;45.626;6.850;2024-02-16T14:29:56;2.03;;;0.90;;
64710;SDS011;51139;45.626;6.850;2024-02-16T14:32:22;2.90;;;0.68;;
64710;SDS011;51139;45.626;6.850;2024-02-16T14:34:47;1.75;;;1.05;;
64710;SDS011;51139;45.626;6.850;2024-02-16T14:37:13;2.25;;;0.82;;
64710;SDS011;51139;45.626;6.850;2024-02-16T14:39:38;2.28;;;1.15;;
64710;SDS011;51139;45.626;6.850;2024-02-16T14:42:04;1.55;;;0.90;;
64710;SDS011;51139;45.626;6.850;2024-02-16T14:44:30;2.00;;;0.95;;
64710;SDS011;51139;45.626;6.850;2024-02-16T14:46:55;3.50;;;1.20;;
64710;SDS011;51139;45.626;6.850;2024-02-16T14:49:22;4.90;;;1.20;;
64710;SDS011;51139;45.626;6.850;2024-02-16T14:51:49;2.22;;;0.98;;
64710;SDS011;51139;45.626;6.850;2024-02-16T14:54:17;2.47;;;0.80;;
64710;SDS011;51139;45.626;6.850;2024-02-16T14:56:42;1.92;;;0.77;;
64710;SDS011;51139;45.626;6.850;2024-02-16T14:59:07;2.05;;;0.80;;
64710;SDS011;51139;45.626;6.850;2024-02-16T15:01:35;1.73;;;0.80;;
64710;SDS011;51139;45.626;6.850;2024-02-16T15:04:01;2.13;;;0.85;;
64710;SDS011;51139;45.626;6.850;2024-02-16T15:06:27;2.78;;;0.98;;
64710;SDS011;51139;45.626;6.850;2024-02-16T15:08:54;2.17;;;1.08;;
64710;SDS011;51139;45.626;6.850;2024-02-16T15:11:20;2.25;;;0.80;;
64710;SDS011;51139;45.626;6.850;2024-02-16T15:13:45;2.42;;;0.88;;
64710;SDS011;51139;45.626;6.850;2024-02-16T15:16:10;3.30;;;0.95;;
64710;SDS011;51139;45.626;6.850;2024-02-16T15:18:36;2.72;;;1.08;;
64710;SDS011;51139;45.626;6.850;2024-02-16T15:21:01;2.42;;;0.80;;
64710;SDS011;51139;45.626;6.850;2024-02-16T15:23:27;3.83;;;1.17;;
64710;SDS011;51139;45.626;6.850;2024-02-16T15:25:52;3.05;;;0.80;;
64710;SDS011;51139;45.626;6.850;2024-02-16T15:28:17;2.33;;;0.80;;
64710;SDS011;51139;45.626;6.850;2024-02-16T15:30:43;1.60;;;0.70;;
64710;SDS011;51139;45.626;6.850;2024-02-16T15:33:09;3.08;;;0.90;;
64710;SDS011;51139;45.626;6.850;2024-02-16T15:35:35;4.65;;;1.17;;
64710;SDS011;51139;45.626;6.850;2024-02-16T15:38:01;2.55;;;0.80;;
64710;SDS011;51139;45.626;6.850;2024-02-16T15:40:27;2.97;;;0.70;;
64710;SDS011;51139;45.626;6.850;2024-02-16T15:42:59;1.52;;;0.73;;
64710;SDS011;51139;45.626;6.850;2024-02-16T15:45:28;2.25;;;1.08;;
64710;SDS011;51139;45.626;6.850;2024-02-16T15:47:53;1.45;;;0.95;;
64710;SDS011;51139;45.626;6.850;2024-02-16T15:50:19;2.80;;;0.90;;
64710;SDS011;51139;45.626;6.850;2024-02-16T15:52:44;2.20;;;1.10;;
64710;SDS011;51139;45.626;6.850;2024-02-16T15:55:09;4.07;;;1.02;;
64710;SDS011;51139;45.626;6.850;2024-02-16T15:57:35;4.25;;;1.27;;
64710;SDS011;51139;45.626;6.850;2024-02-16T16:00:00;2.17;;;1.00;;
64710;SDS011;51139;45.626;6.850;2024-02-16T16:02:27;3.80;;;1.40;;
64710;SDS011;51139;45.626;6.850;2024-02-16T16:04:53;3.00;;;1.20;;
64710;SDS011;51139;45.626;6.850;2024-02-16T16:07:18;1.67;;;1.10;;
64710;SDS011;51139;45.626;6.850;2024-02-16T16:09:43;2.10;;;1.23;;
64710;SDS011;51139;45.626;6.850;2024-02-16T16:12:09;2.75;;;1.33;;
64710;SDS011;51139;45.626;6.850;2024-02-16T16:14:34;2.58;;;1.20;;
64710;SDS011;51139;45.626;6.850;2024-02-16T16:17:01;3.05;;;1.42;;
64710;SDS011;51139;45.626;6.850;2024-02-16T16:19:28;2.55;;;1.13;;
64710;SDS011;51139;45.626;6.850;2024-02-16T16:21:53;3.92;;;1.50;;
64710;SDS011;51139;45.626;6.850;2024-02-16T16:24:21;3.70;;;1.27;;
64710;SDS011;51139;45.626;6.850;2024-02-16T16:26:46;3.65;;;1.30;;
64710;SDS011;51139;45.626;6.850;2024-02-16T16:29:13;2.53;;;1.25;;
64710;SDS011;51139;45.626;6.850;2024-02-16T16:31:40;3.65;;;1.30;;
64710;SDS011;51139;45.626;6.850;2024-02-16T16:34:06;2.10;;;1.33;;
64710;SDS011;51139;45.626;6.850;2024-02-16T16:36:32;2.10;;;1.08;;
64710;SDS011;51139;45.626;6.850;2024-02-16T16:38:57;2.50;;;1.25;;
64710;SDS011;51139;45.626;6.850;2024-02-16T16:41:23;3.65;;;1.00;;
64710;SDS011;51139;45.626;6.850;2024-02-16T16:43:48;4.50;;;1.30;;
64710;SDS011;51139;45.626;6.850;2024-02-16T16:46:14;3.33;;;1.02;;
64710;SDS011;51139;45.626;6.850;2024-02-16T16:48:39;3.33;;;1.48;;
64710;SDS011;51139;45.626;6.850;2024-02-16T16:51:08;2.80;;;1.10;;
64710;SDS011;51139;45.626;6.850;2024-02-16T16:53:33;2.63;;;0.85;;
64710;SDS011;51139;45.626;6.850;2024-02-16T16:55:58;4.03;;;1.92;;
64710;SDS011;51139;45.626;6.850;2024-02-16T16:58:25;3.08;;;1.40;;
64710;SDS011;51139;45.626;6.850;2024-02-16T17:00:51;16.80;;;2.38;;
64710;SDS011;51139;45.626;6.850;2024-02-16T17:03:17;8.65;;;1.90;;
64710;SDS011;51139;45.626;6.850;2024-02-16T17:05:42;10.82;;;2.47;;
64710;SDS011;51139;45.626;6.850;2024-02-16T17:08:07;4.65;;;1.60;;
64710;SDS011;51139;45.626;6.850;2024-02-16T17:10:33;5.65;;;1.45;;
64710;SDS011;51139;45.626;6.850;2024-02-16T17:12:58;10.23;;;2.17;;
64710;SDS011;51139;45.626;6.850;2024-02-16T17:15:24;7.10;;;1.40;;
64710;SDS011;51139;45.626;6.850;2024-02-16T17:17:49;6.68;;;1.52;;
64710;SDS011;51139;45.626;6.850;2024-02-16T17:20:20;12.60;;;1.77;;
64710;SDS011;51139;45.626;6.850;2024-02-16T17:22:49;9.65;;;2.17;;
64710;SDS011;51139;45.626;6.850;2024-02-16T17:25:16;3.35;;;1.65;;
64710;SDS011;51139;45.626;6.850;2024-02-16T17:27:41;9.38;;;1.92;;
64710;SDS011;51139;45.626;6.850;2024-02-16T17:30:07;4.82;;;1.92;;
64710;SDS011;51139;45.626;6.850;2024-02-16T17:32:32;11.15;;;2.78;;
64710;SDS011;51139;45.626;6.850;2024-02-16T17:34:59;16.13;;;3.28;;
64710;SDS011;51139;45.626;6.850;2024-02-16T17:37:26;10.93;;;2.88;;
64710;SDS011;51139;45.626;6.850;2024-02-16T17:39:51;8.27;;;2.50;;
64710;SDS011;51139;45.626;6.850;2024-02-16T17:42:20;6.65;;;2.38;;
64710;SDS011;51139;45.626;6.850;2024-02-16T17:44:45;4.20;;;1.98;;
64710;SDS011;51139;45.626;6.850;2024-02-16T17:47:11;12.68;;;2.90;;
64710;SDS011;51139;45.626;6.850;2024-02-16T17:49:36;5.05;;;2.95;;
64710;SDS011;51139;45.626;6.850;2024-02-16T17:52:01;7.32;;;2.25;;
64710;SDS011;51139;45.626;6.850;2024-02-16T17:54:27;9.75;;;2.25;;
64710;SDS011;51139;45.626;6.850;2024-02-16T17:56:52;4.93;;;2.13;;
64710;SDS011;51139;45.626;6.850;2024-02-16T17:59:18;5.40;;;2.80;;
64710;SDS011;51139;45.626;6.850;2024-02-16T18:01:43;4.40;;;2.03;;
64710;SDS011;51139;45.626;6.850;2024-02-16T18:04:10;6.80;;;2.30;;
64710;SDS011;51139;45.626;6.850;2024-02-16T18:06:35;6.95;;;2.63;;
64710;SDS011;51139;45.626;6.850;2024-02-16T18:09:03;8.73;;;2.38;;
64710;SDS011;51139;45.626;6.850;2024-02-16T18:11:28;4.63;;;2.40;;
64710;SDS011;51139;45.626;6.850;2024-02-16T18:13:54;5.63;;;2.70;;
64710;SDS011;51139;45.626;6.850;2024-02-16T18:16:19;5.47;;;2.00;;
64710;SDS011;51139;45.626;6.850;2024-02-16T18:18:48;8.48;;;2.03;;
64710;SDS011;51139;45.626;6.850;2024-02-16T18:21:14;5.32;;;1.85;;
64710;SDS011;51139;45.626;6.850;2024-02-16T18:23:39;6.22;;;2.20;;
64710;SDS011;51139;45.626;6.850;2024-02-16T18:26:08;6.45;;;2.20;;
64710;SDS011;51139;45.626;6.850;2024-02-16T18:28:34;4.93;;;2.33;;
64710;SDS011;51139;45.626;6.850;2024-02-16T18:31:00;6.85;;;3.28;;
64710;SDS011;51139;45.626;6.850;2024-02-16T18:33:25;6.43;;;3.28;;
64710;SDS011;51139;45.626;6.850;2024-02-16T18:35:54;7.93;;;4.15;;
64710;SDS011;51139;45.626;6.850;2024-02-16T18:38:20;8.82;;;4.47;;
64710;SDS011;51139;45.626;6.850;2024-02-16T18:40:45;11.05;;;3.50;;
64710;SDS011;51139;45.626;6.850;2024-02-16T18:43:11;6.72;;;3.22;;
64710;SDS011;51139;45.626;6.850;2024-02-16T18:45:37;5.40;;;2.30;;
64710;SDS011;51139;45.626;6.850;2024-02-16T18:48:02;6.00;;;2.50;;
64710;SDS011;51139;45.626;6.850;2024-02-16T18:50:28;5.95;;;2.60;;
64710;SDS011;51139;45.626;6.850;2024-02-16T18:52:53;7.85;;;3.42;;
64710;SDS011;51139;45.626;6.850;2024-02-16T18:55:19;10.30;;;3.42;;
64710;SDS011;51139;45.626;6.850;2024-02-16T18:57:44;10.65;;;4.10;;
64710;SDS011;51139;45.626;6.850;2024-02-16T19:00:11;10.52;;;4.00;;
64710;SDS011;51139;45.626;6.850;2024-02-16T19:02:37;5.70;;;3.20;;
64710;SDS011;51139;45.626;6.850;2024-02-16T19:05:07;5.78;;;2.50;;
64710;SDS011;51139;45.626;6.850;2024-02-16T19:07:33;5.32;;;2.47;;
64710;SDS011;51139;45.626;6.850;2024-02-16T19:09:58;4.70;;;2.03;;
64710;SDS011;51139;45.626;6.850;2024-02-16T19:12:24;3.42;;;2.05;;
64710;SDS011;51139;45.626;6.850;2024-02-16T19:14:51;6.45;;;3.25;;
64710;SDS011;51139;45.626;6.850;2024-02-16T19:17:19;12.38;;;6.20;;
64710;SDS011;51139;45.626;6.850;2024-02-16T19:19:45;7.25;;;3.90;;
64710;SDS011;51139;45.626;6.850;2024-02-16T19:22:10;27.10;;;13.23;;
64710;SDS011;51139;45.626;6.850;2024-02-16T19:24:37;24.80;;;12.82;;
64710;SDS011;51139;45.626;6.850;2024-02-16T19:27:03;15.52;;;9.25;;
64710;SDS011;51139;45.626;6.850;2024-02-16T19:29:29;12.98;;;5.90;;
64710;SDS011;51139;45.626;6.850;2024-02-16T19:31:55;9.98;;;3.72;;
64710;SDS011;51139;45.626;6.850;2024-02-16T19:34:20;5.45;;;2.70;;
64710;SDS011;51139;45.626;6.850;2024-02-16T19:36:46;7.82;;;3.45;;
64710;SDS011;51139;45.626;6.850;2024-02-16T19:39:11;7.45;;;2.90;;
64710;SDS011;51139;45.626;6.850;2024-02-16T19:41:47;9.13;;;3.63;;
64710;SDS011;51139;45.626;6.850;2024-02-16T19:44:13;9.57;;;3.60;;
64710;SDS011;51139;45.626;6.850;2024-02-16T19:46:41;5.28;;;2.67;;
64710;SDS011;51139;45.626;6.850;2024-02-16T19:49:07;6.05;;;2.60;;
64710;SDS011;51139;45.626;6.850;2024-02-16T19:51:32;5.70;;;3.00;;
64710;SDS011;51139;45.626;6.850;2024-02-16T19:53:59;5.45;;;2.60;;
64710;SDS011;51139;45.626;6.850;2024-02-16T19:56:25;5.38;;;2.83;;
64710;SDS011;51139;45.626;6.850;2024-02-16T19:58:50;7.65;;;3.40;;
64710;SDS011;51139;45.626;6.850;2024-02-16T20:01:15;4.95;;;2.53;;
64710;SDS011;51139;45.626;6.850;2024-02-16T20:03:41;6.72;;;2.63;;